sensor_id;sensor_type;location;lat;lon;timestamp;P1;durP1;ratioP1;P2;durP2;ratioP2
11121;SDS011;5615;49.304;10.576;2023-03-31T00:00:11;6.80;;;3.50;;
11121;SDS011;5615;49.304;10.576;2023-03-31T00:02:38;6.17;;;3.10;;
11121;SDS011;5615;49.304;10.576;2023-03-31T00:05:06;5.07;;;3.20;;
11121;SDS011;5615;49.304;10.576;2023-03-31T00:07:33;8.90;;;3.00;;
11121;SDS011;5615;49.304;10.576;2023-03-31T00:10:02;5.27;;;2.73;;
11121;SDS011;5615;49.304;10.576;2023-03-31T00:12:30;7.10;;;3.33;;
11121;SDS011;5615;49.304;10.576;2023-03-31T00:14:57;8.90;;;3.30;;
11121;SDS011;5615;49.304;10.576;2023-03-31T00:17:23;5.70;;;2.90;;
11121;SDS011;5615;49.304;10.576;2023-03-31T00:19:50;7.47;;;3.10;;
11121;SDS011;5615;49.304;10.576;2023-03-31T00:22:17;6.60;;;3.87;;
11121;SDS011;5615;49.304;10.576;2023-03-31T00:24:46;8.13;;;3.53;;
11121;SDS011;5615;49.304;10.576;2023-03-31T00:27:12;6.27;;;3.17;;
11121;SDS011;5615;49.304;10.576;2023-03-31T00:29:40;6.80;;;3.07;;
11121;SDS011;5615;49.304;10.576;2023-03-31T00:32:07;5.17;;;3.20;;
11121;SDS011;5615;49.304;10.576;2023-03-31T00:34:34;7.97;;;3.33;;
11121;SDS011;5615;49.304;10.576;2023-03-31T00:37:01;9.87;;;3.60;;
11121;SDS011;5615;49.304;10.576;2023-03-31T00:39:28;6.37;;;3.53;;
11121;SDS011;5615;49.304;10.576;2023-03-31T00:41:57;6.40;;;3.40;;
11121;SDS011;5615;49.304;10.576;2023-03-31T00:44:28;8.17;;;3.33;;
11121;SDS011;5615;49.304;10.576;2023-03-31T00:47:00;4.10;;;3.17;;
11121;SDS011;5615;49.304;10.576;2023-03-31T00:49:32;4.10;;;2.77;;
11121;SDS011;5615;49.304;10.576;2023-03-31T00:52:02;6.90;;;3.30;;
11121;SDS011;5615;49.304;10.576;2023-03-31T00:54:32;6.90;;;3.87;;
11121;SDS011;5615;49.304;10.576;2023-03-31T00:57:01;5.87;;;3.80;;
11121;SDS011;5615;49.304;10.576;2023-03-31T00:59:30;5.77;;;3.30;;
11121;SDS011;5615;49.304;10.576;2023-03-31T01:02:03;9.53;;;4.60;;
11121;SDS011;5615;49.304;10.576;2023-03-31T01:04:31;6.37;;;3.30;;
11121;SDS011;5615;49.304;10.576;2023-03-31T01:07:02;6.17;;;3.13;;
11121;SDS011;5615;49.304;10.576;2023-03-31T01:09:36;10.00;;;3.53;;
11121;SDS011;5615;49.304;10.576;2023-03-31T01:12:06;8.67;;;3.13;;
11121;SDS011;5615;49.304;10.576;2023-03-31T01:14:34;5.97;;;2.93;;
11121;SDS011;5615;49.304;10.576;2023-03-31T01:17:03;8.33;;;3.07;;
11121;SDS011;5615;49.304;10.576;2023-03-31T01:19:35;7.60;;;3.20;;
11121;SDS011;5615;49.304;10.576;2023-03-31T01:28:26;6.50;;;3.03;;
11121;SDS011;5615;49.304;10.576;2023-03-31T01:31:04;9.53;;;3.20;;
11121;SDS011;5615;49.304;10.576;2023-03-31T01:34:09;7.40;;;3.17;;
11121;SDS011;5615;49.304;10.576;2023-03-31T01:37:02;8.93;;;3.50;;
11121;SDS011;5615;49.304;10.576;2023-03-31T01:40:29;8.60;;;3.43;;
11121;SDS011;5615;49.304;10.576;2023-03-31T01:43:19;6.27;;;3.00;;
11121;SDS011;5615;49.304;10.576;2023-03-31T01:45:52;5.13;;;3.00;;
11121;SDS011;5615;49.304;10.576;2023-03-31T01:48:25;5.87;;;3.20;;
11121;SDS011;5615;49.304;10.576;2023-03-31T01:51:00;5.10;;;3.30;;
11121;SDS011;5615;49.304;10.576;2023-03-31T01:53:32;8.20;;;4.03;;
11121;SDS011;5615;49.304;10.576;2023-03-31T01:56:09;6.53;;;3.40;;
11121;SDS011;5615;49.304;10.576;2023-03-31T01:58:40;6.97;;;3.47;;
11121;SDS011;5615;49.304;10.576;2023-03-31T02:01:12;6.50;;;3.40;;
11121;SDS011;5615;49.304;10.576;2023-03-31T02:03:44;7.27;;;4.00;;
11121;SDS011;5615;49.304;10.576;2023-03-31T02:06:14;8.70;;;3.77;;
11121;SDS011;5615;49.304;10.576;2023-03-31T02:08:46;8.17;;;4.10;;
11121;SDS011;5615;49.304;10.576;2023-03-31T02:11:17;6.43;;;3.37;;
11121;SDS011;5615;49.304;10.576;2023-03-31T02:13:45;5.73;;;3.17;;
11121;SDS011;5615;49.304;10.576;2023-03-31T02:16:14;6.80;;;3.63;;
11121;SDS011;5615;49.304;10.576;2023-03-31T02:18:46;5.03;;;3.20;;
11121;SDS011;5615;49.304;10.576;2023-03-31T02:21:14;5.60;;;3.03;;
11121;SDS011;5615;49.304;10.576;2023-03-31T02:23:41;9.70;;;4.60;;
11121;SDS011;5615;49.304;10.576;2023-03-31T02:26:11;9.43;;;5.37;;
11121;SDS011;5615;49.304;10.576;2023-03-31T02:28:42;10.53;;;4.50;;
11121;SDS011;5615;49.304;10.576;2023-03-31T02:31:12;11.87;;;4.73;;
11121;SDS011;5615;49.304;10.576;2023-03-31T02:33:48;6.40;;;4.03;;
11121;SDS011;5615;49.304;10.576;2023-03-31T02:36:15;8.13;;;3.50;;
11121;SDS011;5615;49.304;10.576;2023-03-31T02:38:43;7.63;;;3.60;;
11121;SDS011;5615;49.304;10.576;2023-03-31T02:41:15;5.47;;;3.40;;
11121;SDS011;5615;49.304;10.576;2023-03-31T02:43:43;10.90;;;3.60;;
11121;SDS011;5615;49.304;10.576;2023-03-31T02:46:09;7.50;;;3.67;;
11121;SDS011;5615;49.304;10.576;2023-03-31T02:48:36;6.00;;;3.47;;
11121;SDS011;5615;49.304;10.576;2023-03-31T02:51:15;8.87;;;3.50;;
11121;SDS011;5615;49.304;10.576;2023-03-31T02:54:00;6.90;;;2.90;;
11121;SDS011;5615;49.304;10.576;2023-03-31T02:56:53;6.53;;;3.50;;
11121;SDS011;5615;49.304;10.576;2023-03-31T02:59:48;8.27;;;3.13;;
11121;SDS011;5615;49.304;10.576;2023-03-31T03:02:32;6.80;;;3.37;;
11121;SDS011;5615;49.304;10.576;2023-03-31T03:05:12;7.07;;;3.03;;
11121;SDS011;5615;49.304;10.576;2023-03-31T03:07:48;7.37;;;3.53;;
11121;SDS011;5615;49.304;10.576;2023-03-31T03:10:26;7.10;;;3.30;;
11121;SDS011;5615;49.304;10.576;2023-03-31T03:12:56;5.90;;;3.50;;
11121;SDS011;5615;49.304;10.576;2023-03-31T03:15:33;5.47;;;3.00;;
11121;SDS011;5615;49.304;10.576;2023-03-31T03:18:04;5.97;;;2.90;;
11121;SDS011;5615;49.304;10.576;2023-03-31T03:20:31;6.17;;;3.80;;
11121;SDS011;5615;49.304;10.576;2023-03-31T03:22:59;3.90;;;2.80;;
11121;SDS011;5615;49.304;10.576;2023-03-31T03:25:26;7.73;;;2.97;;
11121;SDS011;5615;49.304;10.576;2023-03-31T03:27:54;10.40;;;3.87;;
11121;SDS011;5615;49.304;10.576;2023-03-31T03:30:21;8.03;;;3.17;;
11121;SDS011;5615;49.304;10.576;2023-03-31T03:32:48;11.80;;;3.33;;
11121;SDS011;5615;49.304;10.576;2023-03-31T03:35:15;7.77;;;3.30;;
11121;SDS011;5615;49.304;10.576;2023-03-31T03:37:42;5.73;;;3.40;;
11121;SDS011;5615;49.304;10.576;2023-03-31T03:40:09;9.60;;;3.00;;
11121;SDS011;5615;49.304;10.576;2023-03-31T03:42:36;7.20;;;2.97;;
11121;SDS011;5615;49.304;10.576;2023-03-31T03:45:03;7.13;;;2.87;;
11121;SDS011;5615;49.304;10.576;2023-03-31T03:47:30;8.10;;;2.60;;
11121;SDS011;5615;49.304;10.576;2023-03-31T03:49:58;5.73;;;2.83;;
11121;SDS011;5615;49.304;10.576;2023-03-31T03:52:25;7.40;;;2.83;;
11121;SDS011;5615;49.304;10.576;2023-03-31T03:54:52;4.97;;;2.70;;
11121;SDS011;5615;49.304;10.576;2023-03-31T03:57:18;10.13;;;3.10;;
11121;SDS011;5615;49.304;10.576;2023-03-31T03:59:45;6.13;;;3.10;;
11121;SDS011;5615;49.304;10.576;2023-03-31T04:02:11;9.20;;;4.53;;
11121;SDS011;5615;49.304;10.576;2023-03-31T04:04:38;4.47;;;3.20;;
11121;SDS011;5615;49.304;10.576;2023-03-31T04:07:06;5.40;;;2.77;;
11121;SDS011;5615;49.304;10.576;2023-03-31T04:09:32;6.50;;;3.07;;
11121;SDS011;5615;49.304;10.576;2023-03-31T04:11:59;8.43;;;3.13;;
11121;SDS011;5615;49.304;10.576;2023-03-31T04:14:26;8.63;;;3.70;;
11121;SDS011;5615;49.304;10.576;2023-03-31T04:16:53;4.37;;;2.77;;
11121;SDS011;5615;49.304;10.576;2023-03-31T04:19:20;7.33;;;3.27;;
11121;SDS011;5615;49.304;10.576;2023-03-31T04:21:49;6.83;;;3.10;;
11121;SDS011;5615;49.304;10.576;2023-03-31T04:24:24;6.53;;;3.47;;
11121;SDS011;5615;49.304;10.576;2023-03-31T04:26:54;7.27;;;3.07;;
11121;SDS011;5615;49.304;10.576;2023-03-31T04:29:21;6.33;;;2.87;;
11121;SDS011;5615;49.304;10.576;2023-03-31T04:31:50;6.43;;;3.43;;
11121;SDS011;5615;49.304;10.576;2023-03-31T04:34:18;8.40;;;3.03;;
11121;SDS011;5615;49.304;10.576;2023-03-31T04:36:46;6.33;;;3.10;;
11121;SDS011;5615;49.304;10.576;2023-03-31T04:39:13;9.63;;;3.80;;
11121;SDS011;5615;49.304;10.576;2023-03-31T04:41:43;7.37;;;3.50;;
11121;SDS011;5615;49.304;10.576;2023-03-31T04:44:09;7.23;;;3.10;;
11121;SDS011;5615;49.304;10.576;2023-03-31T04:46:36;7.70;;;3.20;;
11121;SDS011;5615;49.304;10.576;2023-03-31T04:49:03;8.37;;;3.63;;
11121;SDS011;5615;49.304;10.576;2023-03-31T04:51:29;7.20;;;3.10;;
11121;SDS011;5615;49.304;10.576;2023-03-31T04:53:56;8.63;;;3.90;;
11121;SDS011;5615;49.304;10.576;2023-03-31T04:56:23;5.60;;;3.30;;
11121;SDS011;5615;49.304;10.576;2023-03-31T04:58:51;11.07;;;3.67;;
11121;SDS011;5615;49.304;10.576;2023-03-31T05:01:17;10.60;;;3.70;;
11121;SDS011;5615;49.304;10.576;2023-03-31T05:03:44;6.90;;;3.63;;
11121;SDS011;5615;49.304;10.576;2023-03-31T05:06:11;8.30;;;4.07;;
11121;SDS011;5615;49.304;10.576;2023-03-31T05:08:38;10.87;;;5.03;;
11121;SDS011;5615;49.304;10.576;2023-03-31T05:11:05;13.40;;;4.40;;
11121;SDS011;5615;49.304;10.576;2023-03-31T05:13:31;9.03;;;4.20;;
11121;SDS011;5615;49.304;10.576;2023-03-31T05:16:00;7.43;;;3.63;;
11121;SDS011;5615;49.304;10.576;2023-03-31T05:18:31;7.03;;;3.53;;
11121;SDS011;5615;49.304;10.576;2023-03-31T05:21:06;8.93;;;3.70;;
11121;SDS011;5615;49.304;10.576;2023-03-31T05:23:34;6.97;;;4.40;;
11121;SDS011;5615;49.304;10.576;2023-03-31T05:26:00;8.60;;;3.40;;
11121;SDS011;5615;49.304;10.576;2023-03-31T05:28:27;12.07;;;4.40;;
11121;SDS011;5615;49.304;10.576;2023-03-31T05:30:54;7.33;;;4.27;;
11121;SDS011;5615;49.304;10.576;2023-03-31T05:33:22;11.43;;;4.90;;
11121;SDS011;5615;49.304;10.576;2023-03-31T05:35:50;7.87;;;5.83;;
11121;SDS011;5615;49.304;10.576;2023-03-31T05:38:16;7.83;;;4.40;;
11121;SDS011;5615;49.304;10.576;2023-03-31T05:40:43;7.83;;;4.00;;
11121;SDS011;5615;49.304;10.576;2023-03-31T05:43:09;9.03;;;3.60;;
11121;SDS011;5615;49.304;10.576;2023-03-31T05:45:36;11.83;;;4.20;;
11121;SDS011;5615;49.304;10.576;2023-03-31T05:48:03;8.60;;;5.27;;
11121;SDS011;5615;49.304;10.576;2023-03-31T05:50:31;11.70;;;4.00;;
11121;SDS011;5615;49.304;10.576;2023-03-31T05:52:58;6.23;;;4.27;;
11121;SDS011;5615;49.304;10.576;2023-03-31T05:55:24;10.83;;;4.60;;
11121;SDS011;5615;49.304;10.576;2023-03-31T05:57:51;10.57;;;3.97;;
11121;SDS011;5615;49.304;10.576;2023-03-31T06:00:18;10.70;;;4.30;;
11121;SDS011;5615;49.304;10.576;2023-03-31T06:02:45;9.87;;;4.30;;
11121;SDS011;5615;49.304;10.576;2023-03-31T06:05:12;10.20;;;4.57;;
11121;SDS011;5615;49.304;10.576;2023-03-31T06:07:40;9.13;;;5.03;;
11121;SDS011;5615;49.304;10.576;2023-03-31T06:10:07;9.23;;;5.20;;
11121;SDS011;5615;49.304;10.576;2023-03-31T06:12:34;11.67;;;4.90;;
11121;SDS011;5615;49.304;10.576;2023-03-31T06:15:01;9.83;;;5.60;;
11121;SDS011;5615;49.304;10.576;2023-03-31T06:17:28;8.73;;;6.07;;
11121;SDS011;5615;49.304;10.576;2023-03-31T06:19:54;10.73;;;5.70;;
11121;SDS011;5615;49.304;10.576;2023-03-31T06:22:21;13.40;;;5.40;;
11121;SDS011;5615;49.304;10.576;2023-03-31T06:24:49;11.13;;;5.47;;
11121;SDS011;5615;49.304;10.576;2023-03-31T06:27:15;16.20;;;5.97;;
11121;SDS011;5615;49.304;10.576;2023-03-31T06:29:42;18.43;;;6.27;;
11121;SDS011;5615;49.304;10.576;2023-03-31T06:32:09;15.07;;;7.40;;
11121;SDS011;5615;49.304;10.576;2023-03-31T06:34:35;21.63;;;7.70;;
11121;SDS011;5615;49.304;10.576;2023-03-31T06:37:02;12.30;;;7.30;;
11121;SDS011;5615;49.304;10.576;2023-03-31T06:39:28;15.90;;;7.93;;
11121;SDS011;5615;49.304;10.576;2023-03-31T06:41:56;17.77;;;8.60;;
11121;SDS011;5615;49.304;10.576;2023-03-31T06:44:23;14.13;;;9.63;;
11121;SDS011;5615;49.304;10.576;2023-03-31T06:46:50;15.80;;;8.93;;
11121;SDS011;5615;49.304;10.576;2023-03-31T06:49:16;16.87;;;10.90;;
11121;SDS011;5615;49.304;10.576;2023-03-31T06:51:43;14.60;;;10.30;;
11121;SDS011;5615;49.304;10.576;2023-03-31T06:54:09;21.00;;;13.07;;
11121;SDS011;5615;49.304;10.576;2023-03-31T06:56:36;19.23;;;11.20;;
11121;SDS011;5615;49.304;10.576;2023-03-31T06:59:04;16.33;;;11.13;;
11121;SDS011;5615;49.304;10.576;2023-03-31T07:01:30;19.23;;;14.10;;
11121;SDS011;5615;49.304;10.576;2023-03-31T07:04:01;22.33;;;12.87;;
11121;SDS011;5615;49.304;10.576;2023-03-31T07:06:27;23.43;;;15.77;;
11121;SDS011;5615;49.304;10.576;2023-03-31T07:08:54;18.47;;;12.70;;
11121;SDS011;5615;49.304;10.576;2023-03-31T07:11:21;18.23;;;11.93;;
11121;SDS011;5615;49.304;10.576;2023-03-31T07:13:48;20.80;;;11.87;;
11121;SDS011;5615;49.304;10.576;2023-03-31T07:16:16;18.00;;;11.50;;
11121;SDS011;5615;49.304;10.576;2023-03-31T07:18:42;15.87;;;11.13;;
11121;SDS011;5615;49.304;10.576;2023-03-31T07:21:09;15.70;;;11.07;;
11121;SDS011;5615;49.304;10.576;2023-03-31T07:23:35;17.57;;;11.37;;
11121;SDS011;5615;49.304;10.576;2023-03-31T07:26:03;19.60;;;12.07;;
11121;SDS011;5615;49.304;10.576;2023-03-31T07:28:30;18.57;;;12.60;;
11121;SDS011;5615;49.304;10.576;2023-03-31T07:30:57;22.67;;;12.43;;
11121;SDS011;5615;49.304;10.576;2023-03-31T07:33:25;19.83;;;12.33;;
11121;SDS011;5615;49.304;10.576;2023-03-31T07:35:52;20.93;;;12.53;;
11121;SDS011;5615;49.304;10.576;2023-03-31T07:38:18;19.37;;;11.70;;
11121;SDS011;5615;49.304;10.576;2023-03-31T07:40:45;20.30;;;12.73;;
11121;SDS011;5615;49.304;10.576;2023-03-31T07:43:11;18.90;;;11.70;;
11121;SDS011;5615;49.304;10.576;2023-03-31T07:45:38;22.57;;;15.03;;
11121;SDS011;5615;49.304;10.576;2023-03-31T07:48:05;18.43;;;12.87;;
11121;SDS011;5615;49.304;10.576;2023-03-31T07:50:33;19.60;;;12.63;;
11121;SDS011;5615;49.304;10.576;2023-03-31T07:53:00;23.87;;;13.87;;
11121;SDS011;5615;49.304;10.576;2023-03-31T07:55:27;20.00;;;12.60;;
11121;SDS011;5615;49.304;10.576;2023-03-31T07:57:54;25.87;;;14.83;;
11121;SDS011;5615;49.304;10.576;2023-03-31T08:00:20;20.43;;;13.37;;
11121;SDS011;5615;49.304;10.576;2023-03-31T08:02:47;21.23;;;14.03;;
11121;SDS011;5615;49.304;10.576;2023-03-31T08:05:15;25.30;;;12.47;;
11121;SDS011;5615;49.304;10.576;2023-03-31T08:07:45;18.80;;;10.97;;
11121;SDS011;5615;49.304;10.576;2023-03-31T08:10:13;17.83;;;11.57;;
11121;SDS011;5615;49.304;10.576;2023-03-31T08:12:41;15.43;;;11.37;;
11121;SDS011;5615;49.304;10.576;2023-03-31T08:15:09;23.37;;;12.33;;
11121;SDS011;5615;49.304;10.576;2023-03-31T08:17:35;25.67;;;12.93;;
11121;SDS011;5615;49.304;10.576;2023-03-31T08:20:02;17.40;;;12.97;;
11121;SDS011;5615;49.304;10.576;2023-03-31T08:22:32;22.53;;;13.67;;
11121;SDS011;5615;49.304;10.576;2023-03-31T08:25:00;23.27;;;14.07;;
11121;SDS011;5615;49.304;10.576;2023-03-31T08:27:26;17.03;;;12.70;;
11121;SDS011;5615;49.304;10.576;2023-03-31T08:29:53;16.93;;;11.23;;
11121;SDS011;5615;49.304;10.576;2023-03-31T08:32:21;14.43;;;11.03;;
11121;SDS011;5615;49.304;10.576;2023-03-31T08:34:48;20.07;;;11.97;;
11121;SDS011;5615;49.304;10.576;2023-03-31T08:37:14;22.67;;;12.47;;
11121;SDS011;5615;49.304;10.576;2023-03-31T08:39:41;14.50;;;12.00;;
11121;SDS011;5615;49.304;10.576;2023-03-31T08:42:10;16.67;;;12.10;;
11121;SDS011;5615;49.304;10.576;2023-03-31T08:44:41;12.60;;;10.10;;
11121;SDS011;5615;49.304;10.576;2023-03-31T08:47:12;11.47;;;8.63;;
11121;SDS011;5615;49.304;10.576;2023-03-31T08:49:44;12.27;;;9.17;;
11121;SDS011;5615;49.304;10.576;2023-03-31T08:52:14;13.20;;;8.33;;
11121;SDS011;5615;49.304;10.576;2023-03-31T08:54:47;10.17;;;7.87;;
11121;SDS011;5615;49.304;10.576;2023-03-31T08:57:18;8.30;;;6.37;;
11121;SDS011;5615;49.304;10.576;2023-03-31T08:59:49;9.67;;;6.33;;
11121;SDS011;5615;49.304;10.576;2023-03-31T09:02:20;36.37;;;26.70;;
11121;SDS011;5615;49.304;10.576;2023-03-31T09:04:58;7.00;;;5.20;;
11121;SDS011;5615;49.304;10.576;2023-03-31T09:07:45;7.47;;;4.67;;
11121;SDS011;5615;49.304;10.576;2023-03-31T09:10:26;6.17;;;4.00;;
11121;SDS011;5615;49.304;10.576;2023-03-31T09:13:03;5.43;;;3.73;;
11121;SDS011;5615;49.304;10.576;2023-03-31T09:15:39;5.00;;;3.67;;
11121;SDS011;5615;49.304;10.576;2023-03-31T09:18:12;3.50;;;3.17;;
11121;SDS011;5615;49.304;10.576;2023-03-31T09:20:44;6.27;;;3.60;;
11121;SDS011;5615;49.304;10.576;2023-03-31T09:23:18;6.30;;;3.20;;
11121;SDS011;5615;49.304;10.576;2023-03-31T09:25:51;4.83;;;3.53;;
11121;SDS011;5615;49.304;10.576;2023-03-31T09:28:21;5.67;;;3.33;;
11121;SDS011;5615;49.304;10.576;2023-03-31T09:30:51;5.90;;;3.47;;
11121;SDS011;5615;49.304;10.576;2023-03-31T09:33:22;4.60;;;2.57;;
11121;SDS011;5615;49.304;10.576;2023-03-31T09:35:55;6.70;;;2.80;;
11121;SDS011;5615;49.304;10.576;2023-03-31T09:38:22;5.23;;;3.23;;
11121;SDS011;5615;49.304;10.576;2023-03-31T09:40:53;5.70;;;2.70;;
11121;SDS011;5615;49.304;10.576;2023-03-31T09:43:22;3.63;;;2.60;;
11121;SDS011;5615;49.304;10.576;2023-03-31T09:45:51;6.17;;;2.80;;
11121;SDS011;5615;49.304;10.576;2023-03-31T09:48:19;6.10;;;2.80;;
11121;SDS011;5615;49.304;10.576;2023-03-31T09:50:50;4.70;;;2.77;;
11121;SDS011;5615;49.304;10.576;2023-03-31T09:53:21;4.47;;;2.47;;
11121;SDS011;5615;49.304;10.576;2023-03-31T09:55:54;5.37;;;2.33;;
11121;SDS011;5615;49.304;10.576;2023-03-31T09:58:27;3.97;;;2.50;;
11121;SDS011;5615;49.304;10.576;2023-03-31T10:00:55;5.43;;;2.63;;
11121;SDS011;5615;49.304;10.576;2023-03-31T10:03:25;5.63;;;2.40;;
11121;SDS011;5615;49.304;10.576;2023-03-31T10:05:54;3.80;;;2.37;;
11121;SDS011;5615;49.304;10.576;2023-03-31T10:08:23;5.87;;;2.40;;
11121;SDS011;5615;49.304;10.576;2023-03-31T10:10:54;6.77;;;2.70;;
11121;SDS011;5615;49.304;10.576;2023-03-31T10:13:22;6.77;;;2.30;;
11121;SDS011;5615;49.304;10.576;2023-03-31T10:15:52;6.20;;;2.60;;
11121;SDS011;5615;49.304;10.576;2023-03-31T10:18:20;6.80;;;2.53;;
11121;SDS011;5615;49.304;10.576;2023-03-31T10:20:57;4.80;;;2.67;;
11121;SDS011;5615;49.304;10.576;2023-03-31T10:23:26;9.23;;;2.27;;
11121;SDS011;5615;49.304;10.576;2023-03-31T10:25:55;6.50;;;2.60;;
11121;SDS011;5615;49.304;10.576;2023-03-31T10:28:22;5.80;;;2.67;;
11121;SDS011;5615;49.304;10.576;2023-03-31T10:30:50;5.83;;;2.80;;
11121;SDS011;5615;49.304;10.576;2023-03-31T10:33:21;4.33;;;2.50;;
11121;SDS011;5615;49.304;10.576;2023-03-31T10:35:53;7.30;;;2.77;;
11121;SDS011;5615;49.304;10.576;2023-03-31T10:38:23;4.43;;;2.30;;
11121;SDS011;5615;49.304;10.576;2023-03-31T10:40:53;6.23;;;2.30;;
11121;SDS011;5615;49.304;10.576;2023-03-31T10:43:23;6.67;;;2.87;;
11121;SDS011;5615;49.304;10.576;2023-03-31T10:45:54;4.83;;;2.37;;
11121;SDS011;5615;49.304;10.576;2023-03-31T10:48:23;7.93;;;2.83;;
11121;SDS011;5615;49.304;10.576;2023-03-31T10:50:51;7.03;;;3.17;;
11121;SDS011;5615;49.304;10.576;2023-03-31T10:53:19;6.30;;;2.20;;
11121;SDS011;5615;49.304;10.576;2023-03-31T10:55:49;5.03;;;2.17;;
11121;SDS011;5615;49.304;10.576;2023-03-31T10:58:27;4.17;;;2.07;;
11121;SDS011;5615;49.304;10.576;2023-03-31T11:01:06;4.67;;;2.33;;
11121;SDS011;5615;49.304;10.576;2023-03-31T11:03:51;6.47;;;2.20;;
11121;SDS011;5615;49.304;10.576;2023-03-31T11:06:44;4.20;;;2.23;;
11121;SDS011;5615;49.304;10.576;2023-03-31T11:09:20;3.73;;;2.10;;
11121;SDS011;5615;49.304;10.576;2023-03-31T11:12:00;4.97;;;2.00;;
11121;SDS011;5615;49.304;10.576;2023-03-31T11:14:39;5.63;;;2.30;;
11121;SDS011;5615;49.304;10.576;2023-03-31T11:17:18;3.10;;;1.70;;
11121;SDS011;5615;49.304;10.576;2023-03-31T11:19:55;7.05;;;1.90;;
11121;SDS011;5615;49.304;10.576;2023-03-31T11:22:32;5.85;;;1.80;;
11121;SDS011;5615;49.304;10.576;2023-03-31T11:25:11;3.20;;;1.77;;
11121;SDS011;5615;49.304;10.576;2023-03-31T11:27:49;2.87;;;1.37;;
11121;SDS011;5615;49.304;10.576;2023-03-31T11:30:26;5.93;;;1.57;;
11121;SDS011;5615;49.304;10.576;2023-03-31T11:33:02;4.40;;;1.67;;
11121;SDS011;5615;49.304;10.576;2023-03-31T11:35:43;4.70;;;1.60;;
11121;SDS011;5615;49.304;10.576;2023-03-31T11:38:26;3.83;;;1.70;;
11121;SDS011;5615;49.304;10.576;2023-03-31T11:41:04;5.67;;;1.80;;
11121;SDS011;5615;49.304;10.576;2023-03-31T11:43:37;3.43;;;1.77;;
11121;SDS011;5615;49.304;10.576;2023-03-31T11:46:09;4.03;;;1.37;;
11121;SDS011;5615;49.304;10.576;2023-03-31T11:48:42;3.10;;;1.40;;
11121;SDS011;5615;49.304;10.576;2023-03-31T11:51:13;7.30;;;1.90;;
11121;SDS011;5615;49.304;10.576;2023-03-31T11:53:43;3.60;;;1.73;;
11121;SDS011;5615;49.304;10.576;2023-03-31T11:56:11;3.40;;;1.30;;
11121;SDS011;5615;49.304;10.576;2023-03-31T11:58:40;4.07;;;1.80;;
11121;SDS011;5615;49.304;10.576;2023-03-31T12:01:14;4.47;;;1.47;;
11121;SDS011;5615;49.304;10.576;2023-03-31T12:03:50;7.67;;;2.13;;
11121;SDS011;5615;49.304;10.576;2023-03-31T12:06:23;4.40;;;1.70;;
11121;SDS011;5615;49.304;10.576;2023-03-31T12:09:00;5.60;;;1.90;;
11121;SDS011;5615;49.304;10.576;2023-03-31T12:11:32;3.83;;;1.20;;
11121;SDS011;5615;49.304;10.576;2023-03-31T12:14:07;3.87;;;2.10;;
11121;SDS011;5615;49.304;10.576;2023-03-31T12:16:50;4.47;;;1.70;;
11121;SDS011;5615;49.304;10.576;2023-03-31T12:19:21;6.67;;;1.80;;
11121;SDS011;5615;49.304;10.576;2023-03-31T12:21:53;3.17;;;1.60;;
11121;SDS011;5615;49.304;10.576;2023-03-31T12:24:23;5.82;;;1.77;;
11121;SDS011;5615;49.304;10.576;2023-03-31T12:26:52;2.78;;;1.65;;
11121;SDS011;5615;49.304;10.576;2023-03-31T12:29:28;6.10;;;1.75;;
11121;SDS011;5615;49.304;10.576;2023-03-31T12:32:00;4.18;;;1.88;;
11121;SDS011;5615;49.304;10.576;2023-03-31T12:34:31;3.30;;;1.63;;
11121;SDS011;5615;49.304;10.576;2023-03-31T12:37:17;5.17;;;1.90;;
11121;SDS011;5615;49.304;10.576;2023-03-31T12:39:56;5.10;;;1.53;;
11121;SDS011;5615;49.304;10.576;2023-03-31T12:42:46;3.47;;;1.43;;
11121;SDS011;5615;49.304;10.576;2023-03-31T12:45:32;4.73;;;1.60;;
11121;SDS011;5615;49.304;10.576;2023-03-31T12:48:16;5.33;;;1.53;;
11121;SDS011;5615;49.304;10.576;2023-03-31T12:51:18;4.57;;;1.80;;
11121;SDS011;5615;49.304;10.576;2023-03-31T12:54:03;7.77;;;1.87;;
11121;SDS011;5615;49.304;10.576;2023-03-31T12:59:31;5.70;;;1.60;;
11121;SDS011;5615;49.304;10.576;2023-03-31T13:04:52;3.53;;;1.47;;
11121;SDS011;5615;49.304;10.576;2023-03-31T13:07:36;3.67;;;1.43;;
11121;SDS011;5615;49.304;10.576;2023-03-31T13:10:23;4.53;;;1.80;;
11121;SDS011;5615;49.304;10.576;2023-03-31T13:12:56;4.40;;;2.23;;
11121;SDS011;5615;49.304;10.576;2023-03-31T13:15:26;5.70;;;1.83;;
11121;SDS011;5615;49.304;10.576;2023-03-31T13:17:55;2.50;;;1.60;;
11121;SDS011;5615;49.304;10.576;2023-03-31T13:20:26;4.07;;;1.53;;
11121;SDS011;5615;49.304;10.576;2023-03-31T13:22:59;2.38;;;1.15;;
11121;SDS011;5615;49.304;10.576;2023-03-31T13:25:34;1.65;;;1.00;;
11121;SDS011;5615;49.304;10.576;2023-03-31T13:31:03;1.77;;;1.13;;
11121;SDS011;5615;49.304;10.576;2023-03-31T13:33:35;2.90;;;1.20;;
11121;SDS011;5615;49.304;10.576;2023-03-31T13:42:40;3.17;;;1.42;;
11121;SDS011;5615;49.304;10.576;2023-03-31T13:45:22;2.33;;;1.15;;
11121;SDS011;5615;49.304;10.576;2023-03-31T13:48:06;2.70;;;1.40;;
11121;SDS011;5615;49.304;10.576;2023-03-31T13:50:52;2.20;;;0.87;;
11121;SDS011;5615;49.304;10.576;2023-03-31T13:53:35;4.30;;;1.20;;
11121;SDS011;5615;49.304;10.576;2023-03-31T13:56:27;1.87;;;1.17;;
11121;SDS011;5615;49.304;10.576;2023-03-31T13:59:25;1.93;;;1.10;;
11121;SDS011;5615;49.304;10.576;2023-03-31T14:02:19;2.50;;;1.50;;
11121;SDS011;5615;49.304;10.576;2023-03-31T14:05:16;3.77;;;1.10;;
11121;SDS011;5615;49.304;10.576;2023-03-31T14:07:49;3.45;;;1.10;;
11121;SDS011;5615;49.304;10.576;2023-03-31T14:10:22;3.10;;;1.27;;
11121;SDS011;5615;49.304;10.576;2023-03-31T14:13:02;3.05;;;1.30;;
11121;SDS011;5615;49.304;10.576;2023-03-31T14:15:30;1.90;;;0.98;;
11121;SDS011;5615;49.304;10.576;2023-03-31T14:17:57;4.10;;;1.42;;
11121;SDS011;5615;49.304;10.576;2023-03-31T14:20:25;3.00;;;1.42;;
11121;SDS011;5615;49.304;10.576;2023-03-31T14:23:02;1.55;;;1.15;;
11121;SDS011;5615;49.304;10.576;2023-03-31T14:25:42;3.03;;;1.55;;
11121;SDS011;5615;49.304;10.576;2023-03-31T14:28:20;2.97;;;1.27;;
11121;SDS011;5615;49.304;10.576;2023-03-31T14:31:10;3.27;;;1.40;;
11121;SDS011;5615;49.304;10.576;2023-03-31T14:33:46;3.13;;;1.40;;
11121;SDS011;5615;49.304;10.576;2023-03-31T14:36:33;3.20;;;1.63;;
11121;SDS011;5615;49.304;10.576;2023-03-31T14:39:06;3.50;;;1.23;;
11121;SDS011;5615;49.304;10.576;2023-03-31T14:41:35;3.70;;;1.60;;
11121;SDS011;5615;49.304;10.576;2023-03-31T14:44:05;5.17;;;1.30;;
11121;SDS011;5615;49.304;10.576;2023-03-31T14:46:35;4.13;;;2.60;;
11121;SDS011;5615;49.304;10.576;2023-03-31T14:49:05;3.97;;;1.87;;
11121;SDS011;5615;49.304;10.576;2023-03-31T14:51:41;5.03;;;3.47;;
11121;SDS011;5615;49.304;10.576;2023-03-31T14:54:13;6.27;;;1.97;;
11121;SDS011;5615;49.304;10.576;2023-03-31T14:56:41;4.83;;;1.60;;
11121;SDS011;5615;49.304;10.576;2023-03-31T14:59:12;2.13;;;1.20;;
11121;SDS011;5615;49.304;10.576;2023-03-31T15:01:44;3.17;;;1.43;;
11121;SDS011;5615;49.304;10.576;2023-03-31T15:04:13;2.83;;;1.33;;
11121;SDS011;5615;49.304;10.576;2023-03-31T15:06:44;3.53;;;1.20;;
11121;SDS011;5615;49.304;10.576;2023-03-31T15:09:14;3.67;;;1.53;;
11121;SDS011;5615;49.304;10.576;2023-03-31T15:11:45;6.10;;;1.63;;
11121;SDS011;5615;49.304;10.576;2023-03-31T15:14:13;3.30;;;1.23;;
11121;SDS011;5615;49.304;10.576;2023-03-31T15:16:40;6.47;;;1.83;;
11121;SDS011;5615;49.304;10.576;2023-03-31T15:19:13;5.17;;;1.60;;
11121;SDS011;5615;49.304;10.576;2023-03-31T15:21:41;4.90;;;1.97;;
11121;SDS011;5615;49.304;10.576;2023-03-31T15:24:10;2.87;;;1.30;;
11121;SDS011;5615;49.304;10.576;2023-03-31T15:26:38;2.27;;;1.07;;
11121;SDS011;5615;49.304;10.576;2023-03-31T15:29:10;2.80;;;1.33;;